createdAt,value
2023-03-31T00:02:35.439Z,91.1
2023-03-31T00:14:35.324Z,94.2
2023-03-31T00:26:35.324Z,94.9
2023-03-31T00:38:36.009Z,95.8
2023-03-31T00:50:35.308Z,96.3
2023-03-31T01:02:35.358Z,96.5
2023-03-31T01:14:35.338Z,96.4
2023-03-31T01:26:35.309Z,96.2
2023-03-31T01:38:35.311Z,95.1
2023-03-31T01:50:35.347Z,94.9
2023-03-31T02:02:35.448Z,94.6
2023-03-31T02:14:35.311Z,94.4
2023-03-31T02:26:35.313Z,92.5
2023-03-31T02:38:35.426Z,92.6
2023-03-31T02:50:35.424Z,93.0
2023-03-31T03:02:35.543Z,93.4
2023-03-31T03:14:35.323Z,93.7
2023-03-31T03:26:35.442Z,93.5
2023-03-31T03:38:35.333Z,92.8
2023-03-31T03:50:35.325Z,92.2
2023-03-31T04:02:35.526Z,91.4
2023-03-31T04:14:35.422Z,90.8
2023-03-31T04:26:35.423Z,90.3
2023-03-31T04:38:35.331Z,90.5
2023-03-31T04:50:35.430Z,91.4
2023-03-31T05:02:35.402Z,92.5
2023-03-31T05:14:35.421Z,93.5
2023-03-31T05:26:35.371Z,94.0
2023-03-31T05:38:35.429Z,95.0
2023-03-31T05:50:35.441Z,95.9
2023-03-31T06:02:35.478Z,96.7
2023-03-31T06:14:35.321Z,97.4
2023-03-31T06:26:35.316Z,97.4
2023-03-31T06:38:35.429Z,97.4
2023-03-31T06:50:35.323Z,97.0
2023-03-31T07:02:35.442Z,96.7
2023-03-31T07:14:35.377Z,95.3
2023-03-31T07:26:35.318Z,94.9
2023-03-31T07:38:35.308Z,94.9
2023-03-31T07:50:35.400Z,92.1
2023-03-31T08:02:35.532Z,92.8
2023-03-31T08:14:41.148Z,89.1
2023-03-31T08:26:35.322Z,89.7
2023-03-31T08:38:35.331Z,89.1
2023-03-31T08:50:35.415Z,89.6
2023-03-31T09:02:35.558Z,89.7
2023-03-31T09:14:35.376Z,92.3
2023-03-31T09:26:35.426Z,92.2
2023-03-31T09:38:35.310Z,92.2
2023-03-31T09:50:35.349Z,91.3
2023-03-31T10:02:35.389Z,90.4
2023-03-31T10:14:35.315Z,88.9
2023-03-31T10:26:35.332Z,89.8
2023-03-31T10:38:35.321Z,91.9
2023-03-31T10:50:35.501Z,87.6
2023-03-31T11:02:35.443Z,86.7
2023-03-31T11:14:35.331Z,87.5
2023-03-31T11:26:35.333Z,83.2
2023-03-31T11:38:35.341Z,79.6
2023-03-31T11:50:35.329Z,79.1
2023-03-31T12:02:35.392Z,76.1
2023-03-31T12:14:35.374Z,77.3
2023-03-31T12:26:35.312Z,74.6
2023-03-31T12:38:35.434Z,74.0
2023-03-31T12:50:35.436Z,75.6
2023-03-31T13:02:35.415Z,80.6
2023-03-31T13:14:35.321Z,82.5
2023-03-31T13:26:35.308Z,74.0
2023-03-31T13:38:35.311Z,68.1
2023-03-31T13:50:35.372Z,69.1
2023-03-31T14:02:35.367Z,68.1
2023-03-31T14:14:35.395Z,68.6
2023-03-31T14:26:35.306Z,71.0
2023-03-31T14:38:35.372Z,71.1
2023-03-31T14:50:35.319Z,75.7
2023-03-31T15:02:35.462Z,76.6
2023-03-31T15:14:35.446Z,79.7
2023-03-31T15:26:41.648Z,77.7
2023-03-31T15:38:35.422Z,80.5
2023-03-31T15:50:35.405Z,85.1
2023-03-31T16:02:35.359Z,85.3
2023-03-31T16:14:35.304Z,82.1
2023-03-31T16:26:35.328Z,80.4
2023-03-31T16:38:35.419Z,77.6
2023-03-31T16:50:35.370Z,75.4
2023-03-31T17:02:35.412Z,76.5
2023-03-31T17:14:35.421Z,74.3
2023-03-31T17:26:35.310Z,74.5
2023-03-31T17:38:35.740Z,78.0
2023-03-31T17:50:35.424Z,76.3
2023-03-31T18:02:35.480Z,76.3
2023-03-31T18:14:35.413Z,80.4
2023-03-31T18:26:35.661Z,82.4
2023-03-31T18:38:35.389Z,83.8
2023-03-31T18:50:35.319Z,84.9
2023-03-31T19:02:35.537Z,84.9
2023-03-31T19:14:35.411Z,91.0
2023-03-31T19:26:35.317Z,93.1
2023-03-31T19:38:35.433Z,93.9
2023-03-31T19:50:35.425Z,93.9
2023-03-31T20:02:35.653Z,93.6
2023-03-31T20:14:35.330Z,92.8
2023-03-31T20:26:35.386Z,93.2
2023-03-31T20:38:35.410Z,91.8
2023-03-31T20:50:35.393Z,90.1
2023-03-31T21:02:35.499Z,89.6
2023-03-31T21:14:35.403Z,88.3
2023-03-31T21:26:35.505Z,87.7
2023-03-31T21:38:35.383Z,86.7
2023-03-31T21:50:35.440Z,87.9
2023-03-31T22:02:35.344Z,87.9
2023-03-31T22:14:35.423Z,88.3
2023-03-31T22:26:35.315Z,87.7
2023-03-31T22:38:35.424Z,87.7
2023-03-31T22:50:35.410Z,87.8
2023-03-31T23:02:35.446Z,87.5
2023-03-31T23:14:35.384Z,87.5
2023-03-31T23:26:35.330Z,87.4
2023-03-31T23:38:35.322Z,87.7
2023-03-31T23:50:35.364Z,87.5
